createdAt,value
2018-12-26T00:12:17.353Z,3.70
2018-12-26T00:14:56.845Z,3.20
2018-12-26T00:17:38.087Z,3.20
2018-12-26T00:20:18.673Z,3.20
2018-12-26T00:22:59.399Z,3.20
2018-12-26T00:25:39.024Z,3.20
2018-12-26T00:28:20.119Z,3.20
2018-12-26T00:31:01.390Z,3.20
2018-12-26T00:33:42.529Z,3.20
2018-12-26T00:36:23.190Z,3.20
2018-12-26T00:39:05.251Z,3.20
2018-12-26T00:41:45.905Z,3.20
2018-12-26T00:44:27.349Z,3.20
2018-12-26T00:47:08.767Z,3.20
2018-12-26T00:49:49.762Z,3.20
2018-12-26T00:52:29.181Z,3.20
2018-12-26T00:55:09.913Z,3.20
2018-12-26T00:57:50.869Z,3.20
2018-12-26T01:00:32.180Z,3.20
2018-12-26T01:03:11.590Z,3.30
2018-12-26T01:05:52.877Z,3.30
2018-12-26T01:08:33.543Z,3.30
2018-12-26T01:11:14.771Z,3.30
2018-12-26T01:13:56.082Z,3.30
2018-12-26T01:16:37.413Z,3.30
2018-12-26T01:19:18.760Z,3.30
2018-12-26T01:21:59.931Z,3.30
2018-12-26T01:24:41.370Z,3.30
2018-12-26T01:27:22.665Z,3.30
2018-12-26T01:30:03.320Z,3.30
2018-12-26T01:32:44.796Z,3.30
2018-12-26T01:35:25.422Z,3.30
2018-12-26T01:38:06.235Z,3.30
2018-12-26T01:40:47.693Z,3.30
2018-12-26T01:43:28.925Z,3.30
2018-12-26T01:46:10.249Z,3.30
2018-12-26T01:48:51.713Z,3.40
2018-12-26T01:51:33.170Z,3.40
2018-12-26T01:54:14.670Z,3.40
2018-12-26T01:56:55.533Z,3.40
2018-12-26T01:59:36.126Z,3.40
2018-12-26T02:02:17.485Z,3.40
2018-12-26T02:04:58.979Z,3.40
2018-12-26T02:07:40.237Z,3.40
2018-12-26T02:10:20.955Z,3.40
2018-12-26T09:41:38.077Z,3.40
2018-12-26T09:46:58.064Z,4.60
2018-12-26T09:49:38.770Z,4.70
2018-12-26T09:52:20.315Z,4.60
2018-12-26T09:55:01.909Z,4.60
2018-12-26T09:57:42.769Z,4.70
2018-12-26T10:00:23.559Z,4.70
2018-12-26T10:03:05.179Z,4.70
2018-12-26T10:05:46.341Z,4.70
2018-12-26T10:08:27.477Z,4.70
2018-12-26T10:11:09.249Z,4.70
2018-12-26T10:13:50.907Z,4.70
2018-12-26T10:16:32.413Z,4.70
2018-12-26T10:19:13.908Z,4.70
2018-12-26T10:21:55.267Z,4.70
2018-12-26T10:24:36.945Z,4.70
2018-12-26T10:27:17.995Z,4.80
2018-12-26T10:29:59.404Z,4.80
2018-12-26T10:32:40.719Z,4.70
2018-12-26T10:35:21.298Z,4.70
2018-12-26T10:38:02.509Z,4.80
2018-12-26T10:40:43.826Z,4.80
2018-12-26T10:43:24.954Z,4.80
2018-12-26T10:46:06.243Z,4.80
2018-12-26T11:09:16.708Z,4.90
2018-12-26T11:19:57.568Z,5.20
2018-12-26T11:22:38.768Z,5.40
2018-12-26T11:25:19.719Z,5.40
2018-12-26T11:28:00.896Z,5.40
2018-12-26T11:30:43.036Z,5.30
2018-12-26T11:33:23.732Z,5.20
2018-12-26T11:36:05.051Z,5.20
2018-12-26T11:38:46.280Z,5.20
2018-12-26T11:41:25.932Z,5.20
2018-12-26T11:44:14.680Z,5.10
2018-12-26T11:46:56.968Z,5.10
2018-12-26T11:49:26.438Z,5.10
2018-12-26T11:52:14.855Z,5.10
2018-12-26T11:55:03.361Z,5.10
2018-12-26T11:57:44.020Z,5.20
2018-12-26T12:00:25.386Z,5.20
2018-12-26T12:03:06.558Z,5.20
2018-12-26T12:05:48.085Z,5.30
2018-12-26T12:08:29.538Z,5.30
2018-12-26T12:11:10.503Z,5.40
2018-12-26T12:13:51.542Z,5.40
2018-12-26T12:16:33.163Z,5.40
2018-12-26T12:19:14.541Z,5.40
2018-12-26T12:21:55.171Z,5.50
2018-12-26T12:24:36.472Z,5.50
2018-12-26T12:27:17.607Z,5.50
2018-12-26T12:29:59.109Z,5.50
2018-12-26T12:32:39.946Z,5.50
2018-12-26T12:35:20.614Z,5.60
2018-12-26T12:38:02.148Z,5.60
2018-12-26T12:40:43.208Z,5.60
2018-12-26T12:43:23.923Z,5.60
2018-12-26T12:46:03.930Z,5.60
2018-12-26T12:48:52.841Z,5.60
2018-12-26T12:51:34.130Z,5.60
2018-12-26T12:54:14.652Z,5.60
2018-12-26T12:56:56.077Z,5.60
2018-12-26T12:59:25.500Z,5.60
2018-12-26T13:02:13.921Z,5.60
2018-12-26T13:04:54.680Z,5.60
2018-12-26T13:07:36.077Z,5.60
2018-12-26T13:10:16.811Z,5.60
2018-12-26T13:12:58.419Z,5.60
2018-12-26T13:15:39.256Z,5.60
2018-12-26T13:18:19.907Z,5.70
2018-12-26T13:21:00.610Z,5.60
2018-12-26T13:23:41.615Z,5.60
2018-12-26T13:26:22.715Z,5.60
2018-12-26T13:29:04.362Z,5.60
2018-12-26T13:34:24.783Z,5.60
2018-12-26T13:37:05.383Z,5.60
2018-12-26T13:39:46.869Z,5.60
2018-12-26T13:42:28.404Z,5.60
2018-12-26T13:45:09.956Z,5.60
2018-12-26T13:47:49.976Z,5.60
2018-12-26T13:50:31.341Z,5.60
2018-12-26T13:53:12.551Z,5.60
2018-12-26T13:55:51.999Z,5.60
2018-12-26T13:58:40.573Z,5.60
2018-12-26T14:01:21.842Z,5.60
2018-12-26T14:04:03.200Z,5.60
2018-12-26T14:06:32.966Z,5.60
2018-12-26T14:09:22.034Z,5.60
2018-12-26T14:12:02.972Z,5.60
2018-12-26T14:14:42.489Z,5.60
2018-12-26T14:17:24.095Z,5.60
2018-12-26T14:20:03.785Z,5.60
2018-12-26T14:22:33.278Z,5.60
2018-12-26T14:25:21.768Z,5.60
2018-12-26T14:28:02.687Z,5.60
2018-12-26T14:30:44.266Z,5.60
2018-12-26T14:33:25.141Z,5.50
2018-12-26T14:36:05.777Z,5.60
2018-12-26T14:38:46.956Z,5.50
2018-12-26T14:41:28.117Z,5.50
2018-12-26T14:44:09.051Z,5.50
2018-12-26T14:46:50.187Z,5.50
2018-12-26T14:49:31.591Z,5.50
2018-12-26T14:52:12.773Z,5.50
2018-12-26T14:54:53.849Z,5.50
2018-12-26T14:57:33.616Z,5.40
2018-12-26T15:00:19.884Z,5.40
2018-12-26T15:02:57.045Z,5.40
2018-12-26T15:05:36.481Z,5.30
2018-12-26T15:08:24.897Z,5.40
2018-12-26T15:11:05.750Z,5.40
2018-12-26T15:13:47.119Z,5.30
2018-12-26T15:16:28.441Z,5.30
2018-12-26T15:19:09.126Z,5.30
2018-12-26T15:21:50.364Z,5.30
2018-12-26T15:24:31.799Z,5.30
2018-12-26T15:27:11.352Z,5.30
2018-12-26T15:29:59.978Z,5.20
2018-12-26T15:32:39.499Z,5.20
2018-12-26T15:35:28.000Z,5.20
2018-12-26T15:38:09.214Z,5.20
2018-12-26T15:40:50.713Z,5.20
2018-12-26T15:43:32.608Z,5.20
2018-12-26T15:46:13.705Z,5.10
2018-12-26T15:48:54.882Z,5.10
2018-12-26T15:51:35.466Z,5.10
2018-12-26T15:54:16.174Z,5.10
2018-12-26T15:56:57.610Z,5.10
2018-12-26T15:59:38.747Z,5.00
2018-12-26T16:02:20.041Z,5.00
2018-12-26T16:05:01.447Z,4.90
2018-12-26T16:07:42.588Z,4.90
2018-12-26T16:10:23.533Z,4.80
2018-12-26T16:13:05.055Z,4.80
2018-12-26T16:15:46.644Z,4.80
2018-12-26T16:18:27.626Z,4.80
2018-12-26T16:21:08.762Z,4.70
2018-12-26T16:23:50.500Z,4.70
2018-12-26T16:26:31.648Z,4.70
2018-12-26T16:29:13.242Z,4.70
2018-12-26T16:31:54.358Z,4.70
2018-12-26T16:34:35.853Z,4.60
2018-12-26T16:37:16.654Z,4.60
2018-12-26T16:39:58.032Z,4.60
2018-12-26T16:42:39.155Z,4.60
2018-12-26T16:45:20.183Z,4.60
2018-12-26T16:48:00.773Z,4.60
2018-12-26T16:50:40.794Z,4.60
2018-12-26T16:53:21.643Z,4.60
2018-12-26T16:56:02.977Z,4.60
2018-12-26T16:58:32.471Z,4.60
2018-12-26T17:01:20.945Z,4.50
2018-12-26T17:04:01.834Z,4.60
2018-12-26T17:06:42.797Z,4.50
2018-12-26T17:09:23.508Z,4.60
2018-12-26T17:12:04.733Z,4.60
2018-12-26T17:14:46.086Z,4.60
2018-12-26T17:17:27.091Z,4.50
2018-12-26T17:20:08.421Z,4.50
2018-12-26T17:22:49.955Z,4.50
2018-12-26T17:25:30.506Z,4.50
2018-12-26T17:28:11.478Z,4.50
2018-12-26T17:30:52.171Z,4.50
2018-12-26T17:33:21.690Z,4.50
